sensor_id;sensor_type;location;lat;lon;timestamp;temperature;humidity
12434;DHT22;6281;49.038;8.372;2023-05-13T00:02:10;12.40;99.90
12434;DHT22;6281;49.038;8.372;2023-05-13T00:04:37;12.40;99.90
12434;DHT22;6281;49.038;8.372;2023-05-13T00:07:04;12.60;99.90
12434;DHT22;6281;49.038;8.372;2023-05-13T00:09:31;12.60;99.90
12434;DHT22;6281;49.038;8.372;2023-05-13T00:11:58;12.50;99.90
12434;DHT22;6281;49.038;8.372;2023-05-13T00:14:26;12.50;99.90
12434;DHT22;6281;49.038;8.372;2023-05-13T00:16:53;12.40;99.90
12434;DHT22;6281;49.038;8.372;2023-05-13T00:19:21;12.50;99.90
12434;DHT22;6281;49.038;8.372;2023-05-13T00:21:47;12.40;99.90
12434;DHT22;6281;49.038;8.372;2023-05-13T00:24:14;12.40;99.90
12434;DHT22;6281;49.038;8.372;2023-05-13T00:26:41;12.50;99.90
12434;DHT22;6281;49.038;8.372;2023-05-13T00:29:08;12.40;99.90
12434;DHT22;6281;49.038;8.372;2023-05-13T00:31:37;12.30;99.90
12434;DHT22;6281;49.038;8.372;2023-05-13T00:34:03;12.40;99.90
12434;DHT22;6281;49.038;8.372;2023-05-13T00:36:30;12.30;99.90
12434;DHT22;6281;49.038;8.372;2023-05-13T00:38:57;12.30;99.90
12434;DHT22;6281;49.038;8.372;2023-05-13T00:41:24;12.30;99.90
12434;DHT22;6281;49.038;8.372;2023-05-13T00:43:53;12.30;99.90
12434;DHT22;6281;49.038;8.372;2023-05-13T00:46:20;12.30;99.90
12434;DHT22;6281;49.038;8.372;2023-05-13T00:48:48;12.30;99.90
12434;DHT22;6281;49.038;8.372;2023-05-13T00:51:15;12.30;99.90
12434;DHT22;6281;49.038;8.372;2023-05-13T00:53:42;12.20;99.90
12434;DHT22;6281;49.038;8.372;2023-05-13T00:56:09;12.30;99.90
12434;DHT22;6281;49.038;8.372;2023-05-13T00:58:36;12.20;99.90
12434;DHT22;6281;49.038;8.372;2023-05-13T01:01:10;12.10;99.90
12434;DHT22;6281;49.038;8.372;2023-05-13T01:03:45;12.10;99.90
12434;DHT22;6281;49.038;8.372;2023-05-13T01:06:17;12.20;99.90
12434;DHT22;6281;49.038;8.372;2023-05-13T01:08:52;12.30;99.90
12434;DHT22;6281;49.038;8.372;2023-05-13T01:11:23;12.20;99.90
12434;DHT22;6281;49.038;8.372;2023-05-13T01:14:00;12.30;99.90
12434;DHT22;6281;49.038;8.372;2023-05-13T01:16:30;12.20;99.90
12434;DHT22;6281;49.038;8.372;2023-05-13T01:19:11;12.20;99.90
12434;DHT22;6281;49.038;8.372;2023-05-13T01:21:50;12.20;99.90
12434;DHT22;6281;49.038;8.372;2023-05-13T01:24:17;12.20;99.90
12434;DHT22;6281;49.038;8.372;2023-05-13T01:26:44;12.20;99.90
12434;DHT22;6281;49.038;8.372;2023-05-13T01:29:11;12.00;99.90
12434;DHT22;6281;49.038;8.372;2023-05-13T01:31:40;12.10;99.90
12434;DHT22;6281;49.038;8.372;2023-05-13T01:34:08;12.00;99.90
12434;DHT22;6281;49.038;8.372;2023-05-13T01:36:36;12.10;99.90
12434;DHT22;6281;49.038;8.372;2023-05-13T01:39:04;12.10;99.90
12434;DHT22;6281;49.038;8.372;2023-05-13T01:41:31;11.90;99.90
12434;DHT22;6281;49.038;8.372;2023-05-13T01:43:58;11.80;99.90
12434;DHT22;6281;49.038;8.372;2023-05-13T01:46:25;11.70;99.90
12434;DHT22;6281;49.038;8.372;2023-05-13T01:48:52;11.70;99.90
12434;DHT22;6281;49.038;8.372;2023-05-13T01:51:19;11.80;99.90
12434;DHT22;6281;49.038;8.372;2023-05-13T01:53:46;11.80;99.90
12434;DHT22;6281;49.038;8.372;2023-05-13T01:56:14;11.70;99.90
12434;DHT22;6281;49.038;8.372;2023-05-13T01:58:40;11.70;99.90
12434;DHT22;6281;49.038;8.372;2023-05-13T02:01:07;11.60;99.90
12434;DHT22;6281;49.038;8.372;2023-05-13T02:03:34;11.70;99.90
12434;DHT22;6281;49.038;8.372;2023-05-13T02:06:01;11.50;99.90
12434;DHT22;6281;49.038;8.372;2023-05-13T02:08:28;11.50;99.90
12434;DHT22;6281;49.038;8.372;2023-05-13T02:10:55;11.60;99.90
12434;DHT22;6281;49.038;8.372;2023-05-13T02:13:24;11.60;99.90
12434;DHT22;6281;49.038;8.372;2023-05-13T02:15:51;11.60;99.90
12434;DHT22;6281;49.038;8.372;2023-05-13T02:18:17;11.60;99.90
12434;DHT22;6281;49.038;8.372;2023-05-13T02:20:44;11.50;99.90
12434;DHT22;6281;49.038;8.372;2023-05-13T02:23:11;11.60;99.90
12434;DHT22;6281;49.038;8.372;2023-05-13T02:25:39;11.60;99.90
12434;DHT22;6281;49.038;8.372;2023-05-13T02:28:06;11.60;99.90
12434;DHT22;6281;49.038;8.372;2023-05-13T02:30:35;11.60;99.90
12434;DHT22;6281;49.038;8.372;2023-05-13T02:33:01;11.60;99.90
12434;DHT22;6281;49.038;8.372;2023-05-13T02:38:36;11.50;99.90
12434;DHT22;6281;49.038;8.372;2023-05-13T02:41:03;11.50;99.90
12434;DHT22;6281;49.038;8.372;2023-05-13T02:43:30;11.40;99.90
12434;DHT22;6281;49.038;8.372;2023-05-13T02:45:59;11.20;99.90
12434;DHT22;6281;49.038;8.372;2023-05-13T02:48:26;11.20;99.90
12434;DHT22;6281;49.038;8.372;2023-05-13T02:50:52;11.20;99.90
12434;DHT22;6281;49.038;8.372;2023-05-13T02:53:19;11.10;99.90
12434;DHT22;6281;49.038;8.372;2023-05-13T02:55:46;11.20;99.90
12434;DHT22;6281;49.038;8.372;2023-05-13T02:58:13;11.00;99.90
12434;DHT22;6281;49.038;8.372;2023-05-13T03:00:40;11.00;99.90
12434;DHT22;6281;49.038;8.372;2023-05-13T03:03:09;11.10;99.90
12434;DHT22;6281;49.038;8.372;2023-05-13T03:05:35;11.00;99.90
12434;DHT22;6281;49.038;8.372;2023-05-13T03:08:03;11.00;99.90
12434;DHT22;6281;49.038;8.372;2023-05-13T03:10:30;11.00;99.90
12434;DHT22;6281;49.038;8.372;2023-05-13T03:12:57;10.90;99.90
12434;DHT22;6281;49.038;8.372;2023-05-13T03:15:24;10.70;99.90
12434;DHT22;6281;49.038;8.372;2023-05-13T03:17:51;10.70;99.90
12434;DHT22;6281;49.038;8.372;2023-05-13T03:20:19;10.70;99.90
12434;DHT22;6281;49.038;8.372;2023-05-13T03:22:46;10.80;99.90
12434;DHT22;6281;49.038;8.372;2023-05-13T03:25:13;10.70;99.90
12434;DHT22;6281;49.038;8.372;2023-05-13T03:27:40;10.70;99.90
12434;DHT22;6281;49.038;8.372;2023-05-13T03:30:07;10.80;99.90
12434;DHT22;6281;49.038;8.372;2023-05-13T03:32:34;10.80;99.90
12434;DHT22;6281;49.038;8.372;2023-05-13T03:35:01;10.90;99.90
12434;DHT22;6281;49.038;8.372;2023-05-13T03:37:30;10.90;99.90
12434;DHT22;6281;49.038;8.372;2023-05-13T03:39:57;10.90;99.90
12434;DHT22;6281;49.038;8.372;2023-05-13T03:42:24;10.80;99.90
12434;DHT22;6281;49.038;8.372;2023-05-13T03:44:51;10.80;99.90
12434;DHT22;6281;49.038;8.372;2023-05-13T03:47:17;10.80;99.90
12434;DHT22;6281;49.038;8.372;2023-05-13T03:49:44;10.90;99.90
12434;DHT22;6281;49.038;8.372;2023-05-13T03:52:13;10.70;99.90
12434;DHT22;6281;49.038;8.372;2023-05-13T03:54:42;10.80;99.90
12434;DHT22;6281;49.038;8.372;2023-05-13T03:57:09;10.80;99.90
12434;DHT22;6281;49.038;8.372;2023-05-13T03:59:36;10.70;99.90
12434;DHT22;6281;49.038;8.372;2023-05-13T04:02:04;10.50;99.90
12434;DHT22;6281;49.038;8.372;2023-05-13T04:04:30;10.60;99.90
12434;DHT22;6281;49.038;8.372;2023-05-13T04:06:57;10.60;99.90
12434;DHT22;6281;49.038;8.372;2023-05-13T04:09:24;10.70;99.90
12434;DHT22;6281;49.038;8.372;2023-05-13T04:11:53;10.50;99.90
12434;DHT22;6281;49.038;8.372;2023-05-13T04:14:19;10.60;99.90
12434;DHT22;6281;49.038;8.372;2023-05-13T04:16:47;10.60;99.90
12434;DHT22;6281;49.038;8.372;2023-05-13T04:19:14;10.60;99.90
12434;DHT22;6281;49.038;8.372;2023-05-13T04:21:41;10.50;99.90
12434;DHT22;6281;49.038;8.372;2023-05-13T04:24:07;10.50;99.90
12434;DHT22;6281;49.038;8.372;2023-05-13T04:26:36;10.30;99.90
12434;DHT22;6281;49.038;8.372;2023-05-13T04:29:05;10.40;99.90
12434;DHT22;6281;49.038;8.372;2023-05-13T04:31:32;10.30;99.90
12434;DHT22;6281;49.038;8.372;2023-05-13T04:33:59;10.30;99.90
12434;DHT22;6281;49.038;8.372;2023-05-13T04:36:26;10.20;99.90
12434;DHT22;6281;49.038;8.372;2023-05-13T04:38:53;10.20;99.90
12434;DHT22;6281;49.038;8.372;2023-05-13T04:41:20;10.30;99.90
12434;DHT22;6281;49.038;8.372;2023-05-13T04:43:47;10.40;99.90
12434;DHT22;6281;49.038;8.372;2023-05-13T04:46:15;10.50;99.90
12434;DHT22;6281;49.038;8.372;2023-05-13T04:48:42;10.50;99.90
12434;DHT22;6281;49.038;8.372;2023-05-13T04:51:12;10.40;99.90
12434;DHT22;6281;49.038;8.372;2023-05-13T04:53:39;10.60;99.90
12434;DHT22;6281;49.038;8.372;2023-05-13T04:56:06;10.60;99.90
12434;DHT22;6281;49.038;8.372;2023-05-13T04:58:33;10.50;99.90
12434;DHT22;6281;49.038;8.372;2023-05-13T05:01:00;10.70;99.90
12434;DHT22;6281;49.038;8.372;2023-05-13T05:03:29;10.80;99.90
12434;DHT22;6281;49.038;8.372;2023-05-13T05:05:56;10.80;99.90
12434;DHT22;6281;49.038;8.372;2023-05-13T05:08:22;10.60;99.90
12434;DHT22;6281;49.038;8.372;2023-05-13T05:10:49;10.60;99.90
12434;DHT22;6281;49.038;8.372;2023-05-13T05:13:16;10.60;99.90
12434;DHT22;6281;49.038;8.372;2023-05-13T05:15:43;10.90;99.90
12434;DHT22;6281;49.038;8.372;2023-05-13T05:18:10;11.00;99.90
12434;DHT22;6281;49.038;8.372;2023-05-13T05:20:39;11.20;99.90
12434;DHT22;6281;49.038;8.372;2023-05-13T05:23:06;11.20;99.90
12434;DHT22;6281;49.038;8.372;2023-05-13T05:25:35;11.10;99.90
12434;DHT22;6281;49.038;8.372;2023-05-13T05:28:01;11.00;99.90
12434;DHT22;6281;49.038;8.372;2023-05-13T05:30:29;11.10;99.90
12434;DHT22;6281;49.038;8.372;2023-05-13T05:32:57;11.20;99.90
12434;DHT22;6281;49.038;8.372;2023-05-13T05:35:24;11.30;99.90
12434;DHT22;6281;49.038;8.372;2023-05-13T05:37:52;11.50;99.90
12434;DHT22;6281;49.038;8.372;2023-05-13T05:40:20;11.50;99.90
12434;DHT22;6281;49.038;8.372;2023-05-13T05:42:46;11.60;99.90
12434;DHT22;6281;49.038;8.372;2023-05-13T05:45:13;11.60;99.90
12434;DHT22;6281;49.038;8.372;2023-05-13T05:47:40;11.70;99.90
12434;DHT22;6281;49.038;8.372;2023-05-13T05:50:08;11.60;99.90
12434;DHT22;6281;49.038;8.372;2023-05-13T05:52:35;11.60;99.90
12434;DHT22;6281;49.038;8.372;2023-05-13T05:55:04;11.60;99.90
12434;DHT22;6281;49.038;8.372;2023-05-13T05:57:31;11.70;99.90
12434;DHT22;6281;49.038;8.372;2023-05-13T05:59:58;11.80;99.90
12434;DHT22;6281;49.038;8.372;2023-05-13T06:02:25;11.90;99.90
12434;DHT22;6281;49.038;8.372;2023-05-13T06:04:52;11.90;99.90
12434;DHT22;6281;49.038;8.372;2023-05-13T06:07:19;12.00;99.90
12434;DHT22;6281;49.038;8.372;2023-05-13T06:09:46;12.10;99.90
12434;DHT22;6281;49.038;8.372;2023-05-13T06:12:14;12.00;99.90
12434;DHT22;6281;49.038;8.372;2023-05-13T06:14:41;12.10;99.90
12434;DHT22;6281;49.038;8.372;2023-05-13T06:17:08;12.30;99.90
12434;DHT22;6281;49.038;8.372;2023-05-13T06:19:35;12.30;99.90
12434;DHT22;6281;49.038;8.372;2023-05-13T06:22:02;12.40;99.90
12434;DHT22;6281;49.038;8.372;2023-05-13T06:24:29;12.30;99.90
12434;DHT22;6281;49.038;8.372;2023-05-13T06:26:55;12.50;99.90
12434;DHT22;6281;49.038;8.372;2023-05-13T06:29:24;12.60;99.90
12434;DHT22;6281;49.038;8.372;2023-05-13T06:31:51;12.60;99.90
12434;DHT22;6281;49.038;8.372;2023-05-13T06:34:17;12.60;99.90
12434;DHT22;6281;49.038;8.372;2023-05-13T06:36:44;12.60;99.90
12434;DHT22;6281;49.038;8.372;2023-05-13T06:39:11;12.70;99.90
12434;DHT22;6281;49.038;8.372;2023-05-13T06:41:39;12.80;99.90
12434;DHT22;6281;49.038;8.372;2023-05-13T06:44:06;12.90;99.90
12434;DHT22;6281;49.038;8.372;2023-05-13T06:46:35;12.90;99.90
12434;DHT22;6281;49.038;8.372;2023-05-13T06:49:02;13.00;99.90
12434;DHT22;6281;49.038;8.372;2023-05-13T06:51:29;13.20;99.90
12434;DHT22;6281;49.038;8.372;2023-05-13T06:53:57;13.20;99.90
12434;DHT22;6281;49.038;8.372;2023-05-13T06:56:24;13.30;99.90
12434;DHT22;6281;49.038;8.372;2023-05-13T06:58:51;13.40;99.90
12434;DHT22;6281;49.038;8.372;2023-05-13T07:01:18;13.40;99.90
12434;DHT22;6281;49.038;8.372;2023-05-13T07:03:47;13.50;99.90
12434;DHT22;6281;49.038;8.372;2023-05-13T07:06:14;13.30;99.90
12434;DHT22;6281;49.038;8.372;2023-05-13T07:08:41;13.40;99.90
12434;DHT22;6281;49.038;8.372;2023-05-13T07:11:08;13.50;99.90
12434;DHT22;6281;49.038;8.372;2023-05-13T07:13:35;13.40;99.90
12434;DHT22;6281;49.038;8.372;2023-05-13T07:16:02;13.60;99.90
12434;DHT22;6281;49.038;8.372;2023-05-13T07:18:29;13.70;99.90
12434;DHT22;6281;49.038;8.372;2023-05-13T07:20:57;13.80;99.90
12434;DHT22;6281;49.038;8.372;2023-05-13T07:23:24;13.90;99.90
12434;DHT22;6281;49.038;8.372;2023-05-13T07:25:51;13.90;99.90
12434;DHT22;6281;49.038;8.372;2023-05-13T07:28:18;14.00;99.90
12434;DHT22;6281;49.038;8.372;2023-05-13T07:30:45;14.20;99.90
12434;DHT22;6281;49.038;8.372;2023-05-13T07:33:12;14.20;99.90
12434;DHT22;6281;49.038;8.372;2023-05-13T07:35:39;14.20;99.90
12434;DHT22;6281;49.038;8.372;2023-05-13T07:38:08;14.10;99.90
12434;DHT22;6281;49.038;8.372;2023-05-13T07:40:35;14.40;99.90
12434;DHT22;6281;49.038;8.372;2023-05-13T07:43:02;14.50;99.90
12434;DHT22;6281;49.038;8.372;2023-05-13T07:45:29;14.40;99.90
12434;DHT22;6281;49.038;8.372;2023-05-13T07:47:56;14.50;99.90
12434;DHT22;6281;49.038;8.372;2023-05-13T07:50:23;14.60;99.90
12434;DHT22;6281;49.038;8.372;2023-05-13T07:52:50;14.50;99.90
12434;DHT22;6281;49.038;8.372;2023-05-13T07:55:19;14.40;99.90
12434;DHT22;6281;49.038;8.372;2023-05-13T07:57:46;14.60;99.90
12434;DHT22;6281;49.038;8.372;2023-05-13T08:00:14;14.70;99.90
12434;DHT22;6281;49.038;8.372;2023-05-13T08:02:41;14.70;99.90
12434;DHT22;6281;49.038;8.372;2023-05-13T08:05:08;14.60;99.90
12434;DHT22;6281;49.038;8.372;2023-05-13T08:07:36;14.60;99.90
12434;DHT22;6281;49.038;8.372;2023-05-13T08:10:04;14.60;99.90
12434;DHT22;6281;49.038;8.372;2023-05-13T08:12:33;14.60;99.90
12434;DHT22;6281;49.038;8.372;2023-05-13T08:15:00;14.60;99.90
12434;DHT22;6281;49.038;8.372;2023-05-13T08:17:28;14.60;99.90
12434;DHT22;6281;49.038;8.372;2023-05-13T08:19:55;14.80;99.90
12434;DHT22;6281;49.038;8.372;2023-05-13T08:22:22;14.80;99.90
12434;DHT22;6281;49.038;8.372;2023-05-13T08:24:48;14.90;99.90
12434;DHT22;6281;49.038;8.372;2023-05-13T08:27:15;14.90;99.90
12434;DHT22;6281;49.038;8.372;2023-05-13T08:29:44;15.00;99.90
12434;DHT22;6281;49.038;8.372;2023-05-13T08:32:10;15.10;99.90
12434;DHT22;6281;49.038;8.372;2023-05-13T08:34:45;15.20;99.90
12434;DHT22;6281;49.038;8.372;2023-05-13T08:37:12;15.20;99.90
12434;DHT22;6281;49.038;8.372;2023-05-13T08:39:39;15.30;99.90
12434;DHT22;6281;49.038;8.372;2023-05-13T08:42:07;15.40;99.90
12434;DHT22;6281;49.038;8.372;2023-05-13T08:44:38;15.50;99.90
12434;DHT22;6281;49.038;8.372;2023-05-13T08:47:12;15.50;99.90
12434;DHT22;6281;49.038;8.372;2023-05-13T08:49:40;15.50;99.90
12434;DHT22;6281;49.038;8.372;2023-05-13T08:52:07;15.50;99.90
12434;DHT22;6281;49.038;8.372;2023-05-13T08:54:34;15.50;99.90
12434;DHT22;6281;49.038;8.372;2023-05-13T08:57:02;15.60;99.90
12434;DHT22;6281;49.038;8.372;2023-05-13T08:59:29;15.70;99.90
12434;DHT22;6281;49.038;8.372;2023-05-13T09:01:56;15.80;99.90
12434;DHT22;6281;49.038;8.372;2023-05-13T09:04:26;16.00;99.90
12434;DHT22;6281;49.038;8.372;2023-05-13T09:06:52;16.10;99.90
12434;DHT22;6281;49.038;8.372;2023-05-13T09:09:19;16.20;99.90
12434;DHT22;6281;49.038;8.372;2023-05-13T09:11:47;16.30;99.90
12434;DHT22;6281;49.038;8.372;2023-05-13T09:14:17;16.40;99.90
12434;DHT22;6281;49.038;8.372;2023-05-13T09:16:46;16.60;99.90
12434;DHT22;6281;49.038;8.372;2023-05-13T09:19:13;16.60;99.90
12434;DHT22;6281;49.038;8.372;2023-05-13T09:21:42;16.50;99.90
12434;DHT22;6281;49.038;8.372;2023-05-13T09:24:10;16.50;99.90
12434;DHT22;6281;49.038;8.372;2023-05-13T09:26:38;16.60;99.90
12434;DHT22;6281;49.038;8.372;2023-05-13T09:29:16;16.60;99.90
12434;DHT22;6281;49.038;8.372;2023-05-13T09:31:45;16.70;99.90
12434;DHT22;6281;49.038;8.372;2023-05-13T09:34:13;16.50;99.90
12434;DHT22;6281;49.038;8.372;2023-05-13T09:36:41;16.40;99.90
12434;DHT22;6281;49.038;8.372;2023-05-13T09:39:09;16.60;99.90
12434;DHT22;6281;49.038;8.372;2023-05-13T09:41:37;16.60;99.90
12434;DHT22;6281;49.038;8.372;2023-05-13T09:44:04;16.80;99.90
12434;DHT22;6281;49.038;8.372;2023-05-13T09:46:31;16.50;99.90
12434;DHT22;6281;49.038;8.372;2023-05-13T09:48:59;16.40;99.90
12434;DHT22;6281;49.038;8.372;2023-05-13T09:51:27;16.50;99.90
12434;DHT22;6281;49.038;8.372;2023-05-13T09:54:02;16.70;99.90
12434;DHT22;6281;49.038;8.372;2023-05-13T09:56:29;17.00;99.90
12434;DHT22;6281;49.038;8.372;2023-05-13T09:58:58;17.50;99.90
12434;DHT22;6281;49.038;8.372;2023-05-13T10:01:26;18.10;99.90
12434;DHT22;6281;49.038;8.372;2023-05-13T10:03:53;18.10;99.90
12434;DHT22;6281;49.038;8.372;2023-05-13T10:06:22;17.90;99.90
12434;DHT22;6281;49.038;8.372;2023-05-13T10:08:50;17.70;99.90
12434;DHT22;6281;49.038;8.372;2023-05-13T10:11:19;17.50;99.90
12434;DHT22;6281;49.038;8.372;2023-05-13T10:13:49;17.90;99.90
12434;DHT22;6281;49.038;8.372;2023-05-13T10:16:16;18.10;99.90
12434;DHT22;6281;49.038;8.372;2023-05-13T10:18:44;17.90;99.90
12434;DHT22;6281;49.038;8.372;2023-05-13T10:21:13;17.90;99.90
12434;DHT22;6281;49.038;8.372;2023-05-13T10:23:40;18.20;99.90
12434;DHT22;6281;49.038;8.372;2023-05-13T10:26:07;17.80;99.90
12434;DHT22;6281;49.038;8.372;2023-05-13T10:28:37;17.90;99.90
12434;DHT22;6281;49.038;8.372;2023-05-13T10:31:04;17.80;99.90
12434;DHT22;6281;49.038;8.372;2023-05-13T10:33:31;17.70;99.90
12434;DHT22;6281;49.038;8.372;2023-05-13T10:36:12;17.70;99.90
12434;DHT22;6281;49.038;8.372;2023-05-13T10:38:55;17.90;99.90
12434;DHT22;6281;49.038;8.372;2023-05-13T10:41:37;17.70;99.90
12434;DHT22;6281;49.038;8.372;2023-05-13T10:44:12;18.40;99.90
12434;DHT22;6281;49.038;8.372;2023-05-13T10:46:41;18.30;99.90
12434;DHT22;6281;49.038;8.372;2023-05-13T10:49:13;17.90;99.90
12434;DHT22;6281;49.038;8.372;2023-05-13T10:51:44;17.90;99.90
12434;DHT22;6281;49.038;8.372;2023-05-13T10:54:18;17.90;99.90
12434;DHT22;6281;49.038;8.372;2023-05-13T10:56:45;18.40;99.90
12434;DHT22;6281;49.038;8.372;2023-05-13T10:59:13;18.30;99.90
12434;DHT22;6281;49.038;8.372;2023-05-13T11:01:42;18.40;99.90
12434;DHT22;6281;49.038;8.372;2023-05-13T11:04:13;18.50;99.90
12434;DHT22;6281;49.038;8.372;2023-05-13T11:06:42;18.10;99.90
12434;DHT22;6281;49.038;8.372;2023-05-13T11:09:12;18.00;99.90
12434;DHT22;6281;49.038;8.372;2023-05-13T11:11:39;18.20;99.90
12434;DHT22;6281;49.038;8.372;2023-05-13T11:14:13;18.30;99.90
12434;DHT22;6281;49.038;8.372;2023-05-13T11:16:46;18.30;99.90
12434;DHT22;6281;49.038;8.372;2023-05-13T11:19:21;18.40;99.90
12434;DHT22;6281;49.038;8.372;2023-05-13T11:21:53;18.40;99.90
12434;DHT22;6281;49.038;8.372;2023-05-13T11:24:20;18.40;99.90
12434;DHT22;6281;49.038;8.372;2023-05-13T11:26:49;18.20;99.90
12434;DHT22;6281;49.038;8.372;2023-05-13T11:29:27;18.30;99.90
12434;DHT22;6281;49.038;8.372;2023-05-13T11:31:56;18.00;99.90
12434;DHT22;6281;49.038;8.372;2023-05-13T11:34:24;18.10;99.90
12434;DHT22;6281;49.038;8.372;2023-05-13T11:36:54;18.20;99.90
12434;DHT22;6281;49.038;8.372;2023-05-13T11:39:23;18.20;99.90
12434;DHT22;6281;49.038;8.372;2023-05-13T11:41:52;18.30;99.90
12434;DHT22;6281;49.038;8.372;2023-05-13T11:44:20;18.70;99.90
12434;DHT22;6281;49.038;8.372;2023-05-13T11:46:51;18.60;99.90
12434;DHT22;6281;49.038;8.372;2023-05-13T11:49:40;18.50;99.90
12434;DHT22;6281;49.038;8.372;2023-05-13T11:52:15;18.90;99.90
12434;DHT22;6281;49.038;8.372;2023-05-13T11:54:43;19.30;99.90
12434;DHT22;6281;49.038;8.372;2023-05-13T11:57:18;19.50;99.90
12434;DHT22;6281;49.038;8.372;2023-05-13T11:59:54;20.20;99.90
12434;DHT22;6281;49.038;8.372;2023-05-13T12:02:22;20.10;99.90
12434;DHT22;6281;49.038;8.372;2023-05-13T12:04:51;19.90;99.90
12434;DHT22;6281;49.038;8.372;2023-05-13T12:07:22;20.00;99.90
12434;DHT22;6281;49.038;8.372;2023-05-13T12:09:49;21.40;99.90
12434;DHT22;6281;49.038;8.372;2023-05-13T12:12:18;21.10;99.90
12434;DHT22;6281;49.038;8.372;2023-05-13T12:14:45;20.30;99.90
12434;DHT22;6281;49.038;8.372;2023-05-13T12:17:14;20.00;99.90
12434;DHT22;6281;49.038;8.372;2023-05-13T12:20:07;20.00;99.90
12434;DHT22;6281;49.038;8.372;2023-05-13T12:22:35;20.30;99.90
12434;DHT22;6281;49.038;8.372;2023-05-13T12:25:35;20.40;99.90
12434;DHT22;6281;49.038;8.372;2023-05-13T12:28:06;19.80;99.90
12434;DHT22;6281;49.038;8.372;2023-05-13T12:30:33;20.10;99.90
12434;DHT22;6281;49.038;8.372;2023-05-13T12:33:00;19.70;99.90
12434;DHT22;6281;49.038;8.372;2023-05-13T12:35:30;19.70;99.90
12434;DHT22;6281;49.038;8.372;2023-05-13T12:37:59;19.50;99.90
12434;DHT22;6281;49.038;8.372;2023-05-13T12:40:26;19.60;99.90
12434;DHT22;6281;49.038;8.372;2023-05-13T12:42:56;20.10;99.90
12434;DHT22;6281;49.038;8.372;2023-05-13T12:45:26;20.10;99.90
12434;DHT22;6281;49.038;8.372;2023-05-13T12:47:54;20.20;99.90
12434;DHT22;6281;49.038;8.372;2023-05-13T12:50:21;20.60;99.90
12434;DHT22;6281;49.038;8.372;2023-05-13T12:52:49;20.60;99.90
12434;DHT22;6281;49.038;8.372;2023-05-13T12:55:17;20.90;99.90
12434;DHT22;6281;49.038;8.372;2023-05-13T12:57:53;20.50;99.90
12434;DHT22;6281;49.038;8.372;2023-05-13T13:00:22;20.30;99.90
12434;DHT22;6281;49.038;8.372;2023-05-13T13:02:48;20.00;99.90
12434;DHT22;6281;49.038;8.372;2023-05-13T13:05:16;20.30;99.90
12434;DHT22;6281;49.038;8.372;2023-05-13T13:07:42;20.20;99.90
12434;DHT22;6281;49.038;8.372;2023-05-13T13:10:11;20.00;99.90
12434;DHT22;6281;49.038;8.372;2023-05-13T13:12:38;20.00;99.90
12434;DHT22;6281;49.038;8.372;2023-05-13T13:15:05;20.10;99.90
12434;DHT22;6281;49.038;8.372;2023-05-13T13:17:33;20.20;99.90
12434;DHT22;6281;49.038;8.372;2023-05-13T13:20:00;20.50;99.90
12434;DHT22;6281;49.038;8.372;2023-05-13T13:22:29;20.40;99.90
12434;DHT22;6281;49.038;8.372;2023-05-13T13:24:56;20.40;99.90
12434;DHT22;6281;49.038;8.372;2023-05-13T13:27:25;20.40;99.90
12434;DHT22;6281;49.038;8.372;2023-05-13T13:29:52;20.50;99.90
12434;DHT22;6281;49.038;8.372;2023-05-13T13:32:18;20.10;99.90
12434;DHT22;6281;49.038;8.372;2023-05-13T13:34:45;19.90;99.90
12434;DHT22;6281;49.038;8.372;2023-05-13T13:37:12;19.70;99.90
12434;DHT22;6281;49.038;8.372;2023-05-13T13:39:39;20.20;99.90
12434;DHT22;6281;49.038;8.372;2023-05-13T13:42:06;20.00;99.90
12434;DHT22;6281;49.038;8.372;2023-05-13T13:44:34;19.80;99.90
12434;DHT22;6281;49.038;8.372;2023-05-13T13:47:04;19.50;99.90
12434;DHT22;6281;49.038;8.372;2023-05-13T13:49:31;19.90;99.90
12434;DHT22;6281;49.038;8.372;2023-05-13T13:51:57;20.00;99.90
12434;DHT22;6281;49.038;8.372;2023-05-13T13:54:24;20.20;99.90
12434;DHT22;6281;49.038;8.372;2023-05-13T13:56:51;20.60;99.90
12434;DHT22;6281;49.038;8.372;2023-05-13T13:59:18;20.60;99.90
12434;DHT22;6281;49.038;8.372;2023-05-13T14:01:46;20.80;99.90
12434;DHT22;6281;49.038;8.372;2023-05-13T14:04:14;20.50;99.90
12434;DHT22;6281;49.038;8.372;2023-05-13T14:06:44;19.80;99.90
12434;DHT22;6281;49.038;8.372;2023-05-13T14:09:11;19.80;99.90
12434;DHT22;6281;49.038;8.372;2023-05-13T14:11:38;20.00;99.90
12434;DHT22;6281;49.038;8.372;2023-05-13T14:14:05;20.60;99.90
12434;DHT22;6281;49.038;8.372;2023-05-13T14:16:32;21.50;99.90
12434;DHT22;6281;49.038;8.372;2023-05-13T14:19:00;22.30;99.90
12434;DHT22;6281;49.038;8.372;2023-05-13T14:21:27;22.50;99.90
12434;DHT22;6281;49.038;8.372;2023-05-13T14:23:53;22.30;99.90
12434;DHT22;6281;49.038;8.372;2023-05-13T14:26:20;21.40;99.90
12434;DHT22;6281;49.038;8.372;2023-05-13T14:28:47;20.90;99.90
12434;DHT22;6281;49.038;8.372;2023-05-13T14:31:14;21.00;99.90
12434;DHT22;6281;49.038;8.372;2023-05-13T14:33:41;20.70;99.90
12434;DHT22;6281;49.038;8.372;2023-05-13T14:36:11;20.70;99.90
12434;DHT22;6281;49.038;8.372;2023-05-13T14:38:40;21.10;99.90
12434;DHT22;6281;49.038;8.372;2023-05-13T14:41:07;21.10;99.90
12434;DHT22;6281;49.038;8.372;2023-05-13T14:43:34;20.80;99.90
12434;DHT22;6281;49.038;8.372;2023-05-13T14:46:03;20.30;99.90
12434;DHT22;6281;49.038;8.372;2023-05-13T14:48:30;20.30;99.90
12434;DHT22;6281;49.038;8.372;2023-05-13T14:50:59;20.00;99.90
12434;DHT22;6281;49.038;8.372;2023-05-13T14:53:27;20.20;99.90
12434;DHT22;6281;49.038;8.372;2023-05-13T14:55:54;20.30;99.90
12434;DHT22;6281;49.038;8.372;2023-05-13T14:58:21;20.70;99.90
12434;DHT22;6281;49.038;8.372;2023-05-13T15:00:48;21.20;99.90
12434;DHT22;6281;49.038;8.372;2023-05-13T15:03:15;21.40;99.90
12434;DHT22;6281;49.038;8.372;2023-05-13T15:05:43;21.40;99.90
12434;DHT22;6281;49.038;8.372;2023-05-13T15:08:11;21.80;99.90
12434;DHT22;6281;49.038;8.372;2023-05-13T15:10:39;21.50;99.90
12434;DHT22;6281;49.038;8.372;2023-05-13T15:13:06;21.20;99.90
12434;DHT22;6281;49.038;8.372;2023-05-13T15:15:33;21.70;99.90
12434;DHT22;6281;49.038;8.372;2023-05-13T15:18:00;21.80;99.90
12434;DHT22;6281;49.038;8.372;2023-05-13T15:20:26;21.70;99.90
12434;DHT22;6281;49.038;8.372;2023-05-13T15:22:54;21.80;99.90
12434;DHT22;6281;49.038;8.372;2023-05-13T15:25:22;22.00;99.90
12434;DHT22;6281;49.038;8.372;2023-05-13T15:27:50;21.90;99.90
12434;DHT22;6281;49.038;8.372;2023-05-13T15:30:17;21.80;99.90
12434;DHT22;6281;49.038;8.372;2023-05-13T15:32:44;21.40;99.90
12434;DHT22;6281;49.038;8.372;2023-05-13T15:35:11;22.10;99.90
12434;DHT22;6281;49.038;8.372;2023-05-13T15:37:40;23.10;99.90
12434;DHT22;6281;49.038;8.372;2023-05-13T15:40:08;22.80;99.90
12434;DHT22;6281;49.038;8.372;2023-05-13T15:42:35;22.80;99.90
12434;DHT22;6281;49.038;8.372;2023-05-13T15:45:04;22.30;99.90
12434;DHT22;6281;49.038;8.372;2023-05-13T15:47:31;22.40;99.90
12434;DHT22;6281;49.038;8.372;2023-05-13T15:49:58;22.10;99.90
12434;DHT22;6281;49.038;8.372;2023-05-13T15:52:26;22.20;99.90
12434;DHT22;6281;49.038;8.372;2023-05-13T15:54:53;22.30;99.90